sensor_id;sensor_type;location;lat;lon;timestamp;temperature;humidity
23540;DHT22;11947;50.810;4.394;2023-10-19T00:00:47;15.90;99.90
23540;DHT22;11947;50.810;4.394;2023-10-19T00:03:17;15.90;99.90
23540;DHT22;11947;50.810;4.394;2023-10-19T00:05:43;15.80;99.90
23540;DHT22;11947;50.810;4.394;2023-10-19T00:08:10;15.70;99.90
23540;DHT22;11947;50.810;4.394;2023-10-19T00:10:46;15.80;99.90
23540;DHT22;11947;50.810;4.394;2023-10-19T00:13:19;15.80;99.90
23540;DHT22;11947;50.810;4.394;2023-10-19T00:15:44;15.90;99.90
23540;DHT22;11947;50.810;4.394;2023-10-19T00:18:19;15.80;99.90
23540;DHT22;11947;50.810;4.394;2023-10-19T00:20:49;15.80;99.90
23540;DHT22;11947;50.810;4.394;2023-10-19T00:23:17;15.90;99.90
23540;DHT22;11947;50.810;4.394;2023-10-19T00:25:44;15.90;99.90
23540;DHT22;11947;50.810;4.394;2023-10-19T00:28:10;15.90;99.90
23540;DHT22;11947;50.810;4.394;2023-10-19T00:30:38;15.90;99.90
23540;DHT22;11947;50.810;4.394;2023-10-19T00:33:07;15.90;99.90
23540;DHT22;11947;50.810;4.394;2023-10-19T00:35:42;15.90;99.90
23540;DHT22;11947;50.810;4.394;2023-10-19T00:38:22;15.90;99.90
23540;DHT22;11947;50.810;4.394;2023-10-19T00:41:00;15.90;99.90
23540;DHT22;11947;50.810;4.394;2023-10-19T00:43:32;15.80;99.90
23540;DHT22;11947;50.810;4.394;2023-10-19T00:46:02;15.80;99.90
23540;DHT22;11947;50.810;4.394;2023-10-19T00:48:40;15.80;99.90
23540;DHT22;11947;50.810;4.394;2023-10-19T00:51:05;15.90;99.90
23540;DHT22;11947;50.810;4.394;2023-10-19T00:53:53;15.90;99.90
23540;DHT22;11947;50.810;4.394;2023-10-19T00:56:19;15.90;99.90
23540;DHT22;11947;50.810;4.394;2023-10-19T00:58:45;15.80;99.90
23540;DHT22;11947;50.810;4.394;2023-10-19T01:01:22;15.80;99.90
23540;DHT22;11947;50.810;4.394;2023-10-19T01:03:50;15.80;99.90
23540;DHT22;11947;50.810;4.394;2023-10-19T01:06:18;15.90;99.90
23540;DHT22;11947;50.810;4.394;2023-10-19T01:08:45;16.00;99.90
23540;DHT22;11947;50.810;4.394;2023-10-19T01:11:11;16.00;99.90
23540;DHT22;11947;50.810;4.394;2023-10-19T01:13:41;15.90;99.90
23540;DHT22;11947;50.810;4.394;2023-10-19T01:16:16;15.90;99.90
23540;DHT22;11947;50.810;4.394;2023-10-19T01:18:52;15.90;99.90
23540;DHT22;11947;50.810;4.394;2023-10-19T01:21:22;15.90;99.90
23540;DHT22;11947;50.810;4.394;2023-10-19T01:23:50;15.90;99.90
23540;DHT22;11947;50.810;4.394;2023-10-19T01:26:16;16.00;99.90
23540;DHT22;11947;50.810;4.394;2023-10-19T01:28:51;15.90;99.90
23540;DHT22;11947;50.810;4.394;2023-10-19T01:31:26;15.90;99.90
23540;DHT22;11947;50.810;4.394;2023-10-19T01:33:55;15.90;99.90
23540;DHT22;11947;50.810;4.394;2023-10-19T01:36:22;15.80;99.90
23540;DHT22;11947;50.810;4.394;2023-10-19T01:38:47;16.00;99.90
23540;DHT22;11947;50.810;4.394;2023-10-19T01:41:14;16.20;99.90
23540;DHT22;11947;50.810;4.394;2023-10-19T01:43:41;16.10;99.90
23540;DHT22;11947;50.810;4.394;2023-10-19T01:46:07;16.00;99.90
23540;DHT22;11947;50.810;4.394;2023-10-19T01:48:37;15.90;99.90
23540;DHT22;11947;50.810;4.394;2023-10-19T01:51:04;15.80;99.90
23540;DHT22;11947;50.810;4.394;2023-10-19T01:53:33;16.00;99.90
23540;DHT22;11947;50.810;4.394;2023-10-19T01:56:00;16.10;99.90
23540;DHT22;11947;50.810;4.394;2023-10-19T01:58:26;16.10;99.90
23540;DHT22;11947;50.810;4.394;2023-10-19T02:00:55;16.00;99.90
23540;DHT22;11947;50.810;4.394;2023-10-19T02:03:21;16.10;99.90
23540;DHT22;11947;50.810;4.394;2023-10-19T02:05:57;16.10;99.90
23540;DHT22;11947;50.810;4.394;2023-10-19T02:08:24;16.00;99.90
23540;DHT22;11947;50.810;4.394;2023-10-19T02:10:51;16.00;99.90
23540;DHT22;11947;50.810;4.394;2023-10-19T02:13:17;16.00;99.90
23540;DHT22;11947;50.810;4.394;2023-10-19T02:15:44;16.10;99.90
23540;DHT22;11947;50.810;4.394;2023-10-19T02:18:10;15.90;99.90
23540;DHT22;11947;50.810;4.394;2023-10-19T02:20:36;15.90;99.90
23540;DHT22;11947;50.810;4.394;2023-10-19T02:23:05;15.90;99.90
23540;DHT22;11947;50.810;4.394;2023-10-19T02:25:32;15.80;99.90
23540;DHT22;11947;50.810;4.394;2023-10-19T02:28:02;15.80;99.90
23540;DHT22;11947;50.810;4.394;2023-10-19T02:30:28;15.80;99.90
23540;DHT22;11947;50.810;4.394;2023-10-19T02:32:55;15.80;99.90
23540;DHT22;11947;50.810;4.394;2023-10-19T02:35:21;15.80;99.90
23540;DHT22;11947;50.810;4.394;2023-10-19T02:37:46;15.80;99.90
23540;DHT22;11947;50.810;4.394;2023-10-19T02:40:12;15.80;99.90
23540;DHT22;11947;50.810;4.394;2023-10-19T02:42:49;15.70;99.90
23540;DHT22;11947;50.810;4.394;2023-10-19T02:45:19;15.70;99.90
23540;DHT22;11947;50.810;4.394;2023-10-19T02:47:44;15.70;99.90
23540;DHT22;11947;50.810;4.394;2023-10-19T02:50:10;15.70;99.90
23540;DHT22;11947;50.810;4.394;2023-10-19T02:52:39;15.80;99.90
23540;DHT22;11947;50.810;4.394;2023-10-19T02:55:06;15.70;99.90
23540;DHT22;11947;50.810;4.394;2023-10-19T02:57:32;15.70;99.90
23540;DHT22;11947;50.810;4.394;2023-10-19T02:59:57;15.60;99.90
23540;DHT22;11947;50.810;4.394;2023-10-19T03:02:24;15.50;99.90
23540;DHT22;11947;50.810;4.394;2023-10-19T03:04:54;15.50;99.90
23540;DHT22;11947;50.810;4.394;2023-10-19T03:07:20;15.50;99.90
23540;DHT22;11947;50.810;4.394;2023-10-19T03:09:45;15.50;99.90
23540;DHT22;11947;50.810;4.394;2023-10-19T03:12:14;15.50;99.90
23540;DHT22;11947;50.810;4.394;2023-10-19T03:14:40;15.50;99.90
23540;DHT22;11947;50.810;4.394;2023-10-19T03:17:09;15.60;99.90
23540;DHT22;11947;50.810;4.394;2023-10-19T03:19:35;15.50;99.90
23540;DHT22;11947;50.810;4.394;2023-10-19T03:22:01;15.50;99.90
23540;DHT22;11947;50.810;4.394;2023-10-19T03:24:26;15.60;99.90
23540;DHT22;11947;50.810;4.394;2023-10-19T03:27:01;15.70;99.90
23540;DHT22;11947;50.810;4.394;2023-10-19T03:29:27;15.80;99.90
23540;DHT22;11947;50.810;4.394;2023-10-19T03:31:57;15.80;99.90
23540;DHT22;11947;50.810;4.394;2023-10-19T03:34:24;15.80;99.90
23540;DHT22;11947;50.810;4.394;2023-10-19T03:36:50;15.70;99.90
23540;DHT22;11947;50.810;4.394;2023-10-19T03:39:20;15.80;99.90
23540;DHT22;11947;50.810;4.394;2023-10-19T03:41:46;15.90;99.90
23540;DHT22;11947;50.810;4.394;2023-10-19T03:44:12;15.90;99.90
23540;DHT22;11947;50.810;4.394;2023-10-19T03:46:50;15.70;99.90
23540;DHT22;11947;50.810;4.394;2023-10-19T03:49:19;15.60;99.90
23540;DHT22;11947;50.810;4.394;2023-10-19T03:51:45;15.50;99.90
23540;DHT22;11947;50.810;4.394;2023-10-19T03:54:33;15.60;99.90
23540;DHT22;11947;50.810;4.394;2023-10-19T03:57:02;15.70;99.90
23540;DHT22;11947;50.810;4.394;2023-10-19T03:59:31;15.70;99.90
23540;DHT22;11947;50.810;4.394;2023-10-19T04:01:59;15.70;99.90
23540;DHT22;11947;50.810;4.394;2023-10-19T04:04:26;15.80;99.90
23540;DHT22;11947;50.810;4.394;2023-10-19T04:06:54;15.90;99.90
23540;DHT22;11947;50.810;4.394;2023-10-19T04:09:23;15.80;99.90
23540;DHT22;11947;50.810;4.394;2023-10-19T04:11:55;15.90;99.90
23540;DHT22;11947;50.810;4.394;2023-10-19T04:14:21;15.90;99.90
23540;DHT22;11947;50.810;4.394;2023-10-19T04:16:46;16.00;99.90
23540;DHT22;11947;50.810;4.394;2023-10-19T04:19:14;15.90;99.90
23540;DHT22;11947;50.810;4.394;2023-10-19T04:21:41;15.90;99.90
23540;DHT22;11947;50.810;4.394;2023-10-19T04:24:09;16.00;99.90
23540;DHT22;11947;50.810;4.394;2023-10-19T04:26:39;15.90;99.90
23540;DHT22;11947;50.810;4.394;2023-10-19T04:29:05;15.80;99.90
23540;DHT22;11947;50.810;4.394;2023-10-19T04:31:37;15.70;99.90
23540;DHT22;11947;50.810;4.394;2023-10-19T04:34:03;15.80;99.90
23540;DHT22;11947;50.810;4.394;2023-10-19T04:36:33;15.80;99.90
23540;DHT22;11947;50.810;4.394;2023-10-19T04:38:59;15.90;99.90
23540;DHT22;11947;50.810;4.394;2023-10-19T04:41:25;16.00;99.90
23540;DHT22;11947;50.810;4.394;2023-10-19T04:43:53;15.90;99.90
23540;DHT22;11947;50.810;4.394;2023-10-19T04:46:19;16.00;99.90
23540;DHT22;11947;50.810;4.394;2023-10-19T04:48:45;15.90;99.90
23540;DHT22;11947;50.810;4.394;2023-10-19T04:51:11;16.10;99.90
23540;DHT22;11947;50.810;4.394;2023-10-19T04:53:37;16.20;99.90
23540;DHT22;11947;50.810;4.394;2023-10-19T04:56:03;16.20;99.90
23540;DHT22;11947;50.810;4.394;2023-10-19T04:58:29;16.30;99.90
23540;DHT22;11947;50.810;4.394;2023-10-19T05:00:55;16.10;99.90
23540;DHT22;11947;50.810;4.394;2023-10-19T05:03:23;16.10;99.90
23540;DHT22;11947;50.810;4.394;2023-10-19T05:05:49;16.10;99.90
23540;DHT22;11947;50.810;4.394;2023-10-19T05:08:14;16.00;99.90
23540;DHT22;11947;50.810;4.394;2023-10-19T05:10:40;16.10;99.90
23540;DHT22;11947;50.810;4.394;2023-10-19T05:13:07;16.10;99.90
23540;DHT22;11947;50.810;4.394;2023-10-19T05:15:32;16.10;99.90
23540;DHT22;11947;50.810;4.394;2023-10-19T05:17:59;15.90;99.90
23540;DHT22;11947;50.810;4.394;2023-10-19T05:20:25;16.10;99.90
23540;DHT22;11947;50.810;4.394;2023-10-19T05:22:51;16.10;99.90
23540;DHT22;11947;50.810;4.394;2023-10-19T05:25:16;16.00;99.90
23540;DHT22;11947;50.810;4.394;2023-10-19T05:27:42;16.00;99.90
23540;DHT22;11947;50.810;4.394;2023-10-19T05:30:07;16.10;99.90
23540;DHT22;11947;50.810;4.394;2023-10-19T05:32:35;16.10;99.90
23540;DHT22;11947;50.810;4.394;2023-10-19T05:35:01;16.00;99.90
23540;DHT22;11947;50.810;4.394;2023-10-19T05:37:29;16.00;99.90
23540;DHT22;11947;50.810;4.394;2023-10-19T05:39:55;16.20;99.90
23540;DHT22;11947;50.810;4.394;2023-10-19T05:42:20;16.10;99.90
23540;DHT22;11947;50.810;4.394;2023-10-19T05:44:47;16.10;99.90
23540;DHT22;11947;50.810;4.394;2023-10-19T05:47:13;16.10;99.90
23540;DHT22;11947;50.810;4.394;2023-10-19T05:49:38;16.10;99.90
23540;DHT22;11947;50.810;4.394;2023-10-19T05:52:04;16.10;99.90
23540;DHT22;11947;50.810;4.394;2023-10-19T05:54:29;16.10;99.90
23540;DHT22;11947;50.810;4.394;2023-10-19T05:56:55;16.10;99.90
23540;DHT22;11947;50.810;4.394;2023-10-19T05:59:21;16.10;99.90
23540;DHT22;11947;50.810;4.394;2023-10-19T06:01:46;16.40;99.90
23540;DHT22;11947;50.810;4.394;2023-10-19T06:04:13;16.30;99.90
23540;DHT22;11947;50.810;4.394;2023-10-19T06:06:38;16.20;99.90
23540;DHT22;11947;50.810;4.394;2023-10-19T06:09:07;16.20;99.90
23540;DHT22;11947;50.810;4.394;2023-10-19T06:11:35;16.20;99.90
23540;DHT22;11947;50.810;4.394;2023-10-19T06:14:03;16.10;99.90
23540;DHT22;11947;50.810;4.394;2023-10-19T06:16:32;16.00;99.90
23540;DHT22;11947;50.810;4.394;2023-10-19T06:18:58;15.90;99.90
23540;DHT22;11947;50.810;4.394;2023-10-19T06:21:24;16.00;99.90
23540;DHT22;11947;50.810;4.394;2023-10-19T06:23:49;15.90;99.90
23540;DHT22;11947;50.810;4.394;2023-10-19T06:26:16;15.90;99.90
23540;DHT22;11947;50.810;4.394;2023-10-19T06:28:41;15.90;99.90
23540;DHT22;11947;50.810;4.394;2023-10-19T06:31:07;16.00;99.90
23540;DHT22;11947;50.810;4.394;2023-10-19T06:33:32;15.90;99.90
23540;DHT22;11947;50.810;4.394;2023-10-19T06:35:58;15.70;99.90
23540;DHT22;11947;50.810;4.394;2023-10-19T06:38:24;15.70;99.90
23540;DHT22;11947;50.810;4.394;2023-10-19T06:40:51;15.70;99.90
23540;DHT22;11947;50.810;4.394;2023-10-19T06:43:17;15.70;99.90
23540;DHT22;11947;50.810;4.394;2023-10-19T06:45:44;15.70;99.90
23540;DHT22;11947;50.810;4.394;2023-10-19T06:48:10;15.70;99.90
23540;DHT22;11947;50.810;4.394;2023-10-19T06:50:36;15.70;99.90
23540;DHT22;11947;50.810;4.394;2023-10-19T06:53:03;15.60;99.90
23540;DHT22;11947;50.810;4.394;2023-10-19T06:55:30;15.60;99.90
23540;DHT22;11947;50.810;4.394;2023-10-19T06:57:56;15.50;99.90
23540;DHT22;11947;50.810;4.394;2023-10-19T07:00:22;15.60;99.90
23540;DHT22;11947;50.810;4.394;2023-10-19T07:02:49;15.60;99.90
23540;DHT22;11947;50.810;4.394;2023-10-19T07:05:18;15.60;99.90
23540;DHT22;11947;50.810;4.394;2023-10-19T07:07:47;15.70;99.90
23540;DHT22;11947;50.810;4.394;2023-10-19T07:10:14;15.70;99.90
23540;DHT22;11947;50.810;4.394;2023-10-19T07:12:40;15.70;99.90
23540;DHT22;11947;50.810;4.394;2023-10-19T07:15:07;15.70;99.90
23540;DHT22;11947;50.810;4.394;2023-10-19T07:17:36;15.80;99.90
23540;DHT22;11947;50.810;4.394;2023-10-19T07:20:03;15.90;99.90
23540;DHT22;11947;50.810;4.394;2023-10-19T07:22:32;15.80;99.90
23540;DHT22;11947;50.810;4.394;2023-10-19T07:24:57;15.70;99.90
23540;DHT22;11947;50.810;4.394;2023-10-19T07:27:23;15.90;99.90
23540;DHT22;11947;50.810;4.394;2023-10-19T07:29:50;16.00;99.90
23540;DHT22;11947;50.810;4.394;2023-10-19T07:32:17;15.90;99.90
23540;DHT22;11947;50.810;4.394;2023-10-19T07:34:42;15.80;99.90
23540;DHT22;11947;50.810;4.394;2023-10-19T07:37:12;15.70;99.90
23540;DHT22;11947;50.810;4.394;2023-10-19T07:39:44;15.90;99.90
23540;DHT22;11947;50.810;4.394;2023-10-19T07:42:10;15.70;99.90
23540;DHT22;11947;50.810;4.394;2023-10-19T07:44:36;15.70;99.90
23540;DHT22;11947;50.810;4.394;2023-10-19T07:47:02;15.90;99.90
23540;DHT22;11947;50.810;4.394;2023-10-19T07:49:27;15.90;99.90
23540;DHT22;11947;50.810;4.394;2023-10-19T07:51:53;16.10;99.90
23540;DHT22;11947;50.810;4.394;2023-10-19T07:54:18;16.00;99.90
23540;DHT22;11947;50.810;4.394;2023-10-19T07:56:46;16.00;99.90
23540;DHT22;11947;50.810;4.394;2023-10-19T07:59:12;16.10;99.90
23540;DHT22;11947;50.810;4.394;2023-10-19T08:01:38;16.10;99.90
23540;DHT22;11947;50.810;4.394;2023-10-19T08:04:03;16.30;99.90
23540;DHT22;11947;50.810;4.394;2023-10-19T08:06:29;16.30;99.90
23540;DHT22;11947;50.810;4.394;2023-10-19T08:08:56;16.50;99.90
23540;DHT22;11947;50.810;4.394;2023-10-19T08:11:23;16.40;99.90
23540;DHT22;11947;50.810;4.394;2023-10-19T08:13:49;16.30;99.90
23540;DHT22;11947;50.810;4.394;2023-10-19T08:16:15;16.30;99.90
23540;DHT22;11947;50.810;4.394;2023-10-19T08:18:42;16.40;99.90
23540;DHT22;11947;50.810;4.394;2023-10-19T08:21:07;16.30;99.90
23540;DHT22;11947;50.810;4.394;2023-10-19T08:23:33;16.50;99.90
23540;DHT22;11947;50.810;4.394;2023-10-19T08:25:59;16.50;99.90
23540;DHT22;11947;50.810;4.394;2023-10-19T08:28:25;16.60;99.90
23540;DHT22;11947;50.810;4.394;2023-10-19T08:30:50;16.50;99.90
23540;DHT22;11947;50.810;4.394;2023-10-19T08:33:23;16.50;99.90
23540;DHT22;11947;50.810;4.394;2023-10-19T08:35:54;16.50;99.90
23540;DHT22;11947;50.810;4.394;2023-10-19T08:38:19;16.50;99.90
23540;DHT22;11947;50.810;4.394;2023-10-19T08:40:45;16.40;99.90
23540;DHT22;11947;50.810;4.394;2023-10-19T08:43:11;16.40;99.90
23540;DHT22;11947;50.810;4.394;2023-10-19T08:45:38;16.40;99.90
23540;DHT22;11947;50.810;4.394;2023-10-19T08:48:04;16.60;99.90
23540;DHT22;11947;50.810;4.394;2023-10-19T08:50:31;16.60;99.90
23540;DHT22;11947;50.810;4.394;2023-10-19T08:52:57;16.80;99.90
23540;DHT22;11947;50.810;4.394;2023-10-19T08:55:23;16.80;99.90
23540;DHT22;11947;50.810;4.394;2023-10-19T08:57:49;16.70;99.90
23540;DHT22;11947;50.810;4.394;2023-10-19T09:00:15;16.70;99.90
23540;DHT22;11947;50.810;4.394;2023-10-19T09:02:43;16.80;99.90
23540;DHT22;11947;50.810;4.394;2023-10-19T09:05:09;17.00;99.90
23540;DHT22;11947;50.810;4.394;2023-10-19T09:07:54;17.10;99.90
23540;DHT22;11947;50.810;4.394;2023-10-19T09:10:23;17.30;99.90
23540;DHT22;11947;50.810;4.394;2023-10-19T09:13:09;17.10;99.90
23540;DHT22;11947;50.810;4.394;2023-10-19T09:15:38;17.30;99.90
23540;DHT22;11947;50.810;4.394;2023-10-19T09:18:16;17.20;99.90
23540;DHT22;11947;50.810;4.394;2023-10-19T09:20:43;17.30;99.90
23540;DHT22;11947;50.810;4.394;2023-10-19T09:23:21;17.60;99.90
23540;DHT22;11947;50.810;4.394;2023-10-19T09:25:50;17.80;99.90
23540;DHT22;11947;50.810;4.394;2023-10-19T09:28:18;17.70;99.90
23540;DHT22;11947;50.810;4.394;2023-10-19T09:30:43;17.40;99.90
23540;DHT22;11947;50.810;4.394;2023-10-19T09:33:10;17.50;99.90
23540;DHT22;11947;50.810;4.394;2023-10-19T09:35:36;17.60;99.90
23540;DHT22;11947;50.810;4.394;2023-10-19T09:38:05;17.60;99.90
23540;DHT22;11947;50.810;4.394;2023-10-19T09:40:32;17.80;99.90
23540;DHT22;11947;50.810;4.394;2023-10-19T09:42:58;17.70;99.90
23540;DHT22;11947;50.810;4.394;2023-10-19T09:45:27;17.80;99.90
23540;DHT22;11947;50.810;4.394;2023-10-19T09:47:55;17.70;99.90
23540;DHT22;11947;50.810;4.394;2023-10-19T09:50:21;17.60;99.90
23540;DHT22;11947;50.810;4.394;2023-10-19T09:52:47;17.70;99.90
23540;DHT22;11947;50.810;4.394;2023-10-19T09:55:24;17.80;99.90
23540;DHT22;11947;50.810;4.394;2023-10-19T10:00:48;17.90;99.90
23540;DHT22;11947;50.810;4.394;2023-10-19T10:06:01;18.00;99.90
23540;DHT22;11947;50.810;4.394;2023-10-19T10:08:29;18.30;99.90
23540;DHT22;11947;50.810;4.394;2023-10-19T10:10:54;18.50;99.90
23540;DHT22;11947;50.810;4.394;2023-10-19T10:15:49;18.90;99.90
23540;DHT22;11947;50.810;4.394;2023-10-19T10:18:15;18.80;99.90
23540;DHT22;11947;50.810;4.394;2023-10-19T10:20:40;18.70;99.90
23540;DHT22;11947;50.810;4.394;2023-10-19T10:23:23;19.00;99.90
23540;DHT22;11947;50.810;4.394;2023-10-19T10:25:57;18.80;99.90
23540;DHT22;11947;50.810;4.394;2023-10-19T10:28:24;18.50;99.90
23540;DHT22;11947;50.810;4.394;2023-10-19T10:33:37;18.40;99.90
23540;DHT22;11947;50.810;4.394;2023-10-19T10:36:04;18.60;99.90
23540;DHT22;11947;50.810;4.394;2023-10-19T10:38:33;18.50;99.90
23540;DHT22;11947;50.810;4.394;2023-10-19T10:40:58;18.50;99.90
23540;DHT22;11947;50.810;4.394;2023-10-19T10:43:24;18.40;99.90
23540;DHT22;11947;50.810;4.394;2023-10-19T10:45:50;18.30;99.90
23540;DHT22;11947;50.810;4.394;2023-10-19T10:48:16;18.20;99.90
23540;DHT22;11947;50.810;4.394;2023-10-19T10:50:42;18.10;99.90
23540;DHT22;11947;50.810;4.394;2023-10-19T10:53:10;18.10;99.90
23540;DHT22;11947;50.810;4.394;2023-10-19T10:55:36;18.10;99.90
23540;DHT22;11947;50.810;4.394;2023-10-19T10:58:02;18.00;99.90
23540;DHT22;11947;50.810;4.394;2023-10-19T11:00:27;18.00;99.90
23540;DHT22;11947;50.810;4.394;2023-10-19T11:03:04;18.00;99.90
23540;DHT22;11947;50.810;4.394;2023-10-19T11:05:30;17.80;99.90
23540;DHT22;11947;50.810;4.394;2023-10-19T11:08:11;17.70;99.90
23540;DHT22;11947;50.810;4.394;2023-10-19T11:10:42;17.70;99.90
23540;DHT22;11947;50.810;4.394;2023-10-19T11:13:09;17.60;99.90
23540;DHT22;11947;50.810;4.394;2023-10-19T11:15:36;17.60;99.90
23540;DHT22;11947;50.810;4.394;2023-10-19T11:18:05;17.60;99.90
23540;DHT22;11947;50.810;4.394;2023-10-19T11:20:32;17.60;99.90
23540;DHT22;11947;50.810;4.394;2023-10-19T11:23:04;17.60;99.90
23540;DHT22;11947;50.810;4.394;2023-10-19T11:25:33;17.70;99.90
23540;DHT22;11947;50.810;4.394;2023-10-19T11:27:59;17.60;99.90
23540;DHT22;11947;50.810;4.394;2023-10-19T11:30:29;17.60;99.90
23540;DHT22;11947;50.810;4.394;2023-10-19T11:32:56;17.40;99.90
23540;DHT22;11947;50.810;4.394;2023-10-19T11:35:25;17.40;99.90
23540;DHT22;11947;50.810;4.394;2023-10-19T11:37:55;17.40;99.90
23540;DHT22;11947;50.810;4.394;2023-10-19T11:40:22;17.30;99.90
23540;DHT22;11947;50.810;4.394;2023-10-19T11:42:50;17.30;99.90
23540;DHT22;11947;50.810;4.394;2023-10-19T11:45:16;17.30;99.90
23540;DHT22;11947;50.810;4.394;2023-10-19T11:47:45;17.30;99.90
23540;DHT22;11947;50.810;4.394;2023-10-19T11:50:11;17.30;99.90
23540;DHT22;11947;50.810;4.394;2023-10-19T11:52:44;17.30;99.90
23540;DHT22;11947;50.810;4.394;2023-10-19T11:55:14;17.30;99.90
23540;DHT22;11947;50.810;4.394;2023-10-19T11:57:40;17.30;99.90
23540;DHT22;11947;50.810;4.394;2023-10-19T12:00:09;17.40;99.90
23540;DHT22;11947;50.810;4.394;2023-10-19T12:02:39;17.30;99.90
23540;DHT22;11947;50.810;4.394;2023-10-19T12:05:07;17.40;99.90
23540;DHT22;11947;50.810;4.394;2023-10-19T12:07:36;17.50;99.90
23540;DHT22;11947;50.810;4.394;2023-10-19T12:10:01;17.40;99.90
23540;DHT22;11947;50.810;4.394;2023-10-19T12:12:28;17.30;99.90
23540;DHT22;11947;50.810;4.394;2023-10-19T12:14:54;17.20;99.90
23540;DHT22;11947;50.810;4.394;2023-10-19T12:17:20;17.10;99.90
23540;DHT22;11947;50.810;4.394;2023-10-19T12:19:47;17.10;99.90
23540;DHT22;11947;50.810;4.394;2023-10-19T12:22:13;17.10;99.90
23540;DHT22;11947;50.810;4.394;2023-10-19T12:24:38;16.90;99.90
23540;DHT22;11947;50.810;4.394;2023-10-19T12:27:04;16.80;99.90
23540;DHT22;11947;50.810;4.394;2023-10-19T12:29:29;16.80;99.90
23540;DHT22;11947;50.810;4.394;2023-10-19T12:31:57;16.80;99.90
23540;DHT22;11947;50.810;4.394;2023-10-19T12:34:22;16.80;99.90
23540;DHT22;11947;50.810;4.394;2023-10-19T12:36:48;16.90;99.90
23540;DHT22;11947;50.810;4.394;2023-10-19T12:39:15;17.10;99.90
23540;DHT22;11947;50.810;4.394;2023-10-19T12:41:59;17.20;99.90
23540;DHT22;11947;50.810;4.394;2023-10-19T12:44:26;17.40;99.90
23540;DHT22;11947;50.810;4.394;2023-10-19T12:46:54;18.30;99.90
23540;DHT22;11947;50.810;4.394;2023-10-19T12:49:19;19.00;99.90
23540;DHT22;11947;50.810;4.394;2023-10-19T12:51:54;20.50;99.90
23540;DHT22;11947;50.810;4.394;2023-10-19T12:54:19;22.00;99.90
23540;DHT22;11947;50.810;4.394;2023-10-19T12:56:45;22.70;99.90
23540;DHT22;11947;50.810;4.394;2023-10-19T12:59:14;23.90;99.90
23540;DHT22;11947;50.810;4.394;2023-10-19T13:01:42;25.00;99.90
23540;DHT22;11947;50.810;4.394;2023-10-19T13:04:10;25.50;99.90
23540;DHT22;11947;50.810;4.394;2023-10-19T13:06:49;25.70;99.90
23540;DHT22;11947;50.810;4.394;2023-10-19T13:09:15;27.00;99.90
23540;DHT22;11947;50.810;4.394;2023-10-19T13:11:47;26.60;99.90
23540;DHT22;11947;50.810;4.394;2023-10-19T13:14:17;27.40;99.90
23540;DHT22;11947;50.810;4.394;2023-10-19T13:16:43;26.60;99.90
23540;DHT22;11947;50.810;4.394;2023-10-19T13:19:08;25.50;99.90
23540;DHT22;11947;50.810;4.394;2023-10-19T13:21:38;24.60;99.90
23540;DHT22;11947;50.810;4.394;2023-10-19T13:24:04;24.40;99.90
23540;DHT22;11947;50.810;4.394;2023-10-19T13:26:31;23.10;99.90
23540;DHT22;11947;50.810;4.394;2023-10-19T13:28:57;21.80;99.90
23540;DHT22;11947;50.810;4.394;2023-10-19T13:31:23;21.40;99.90
23540;DHT22;11947;50.810;4.394;2023-10-19T13:33:49;21.20;99.90
23540;DHT22;11947;50.810;4.394;2023-10-19T13:36:15;21.00;99.90
23540;DHT22;11947;50.810;4.394;2023-10-19T13:38:41;20.50;99.90
23540;DHT22;11947;50.810;4.394;2023-10-19T13:41:07;20.30;99.90
23540;DHT22;11947;50.810;4.394;2023-10-19T13:43:35;20.00;99.90
23540;DHT22;11947;50.810;4.394;2023-10-19T13:46:01;19.60;99.90
23540;DHT22;11947;50.810;4.394;2023-10-19T13:48:27;19.40;99.90
23540;DHT22;11947;50.810;4.394;2023-10-19T13:50:54;19.20;99.90
23540;DHT22;11947;50.810;4.394;2023-10-19T13:53:41;19.20;99.90
23540;DHT22;11947;50.810;4.394;2023-10-19T13:56:07;18.90;99.90
23540;DHT22;11947;50.810;4.394;2023-10-19T13:58:32;19.00;99.90
23540;DHT22;11947;50.810;4.394;2023-10-19T14:00:58;19.00;99.90
23540;DHT22;11947;50.810;4.394;2023-10-19T14:03:24;19.10;99.90
23540;DHT22;11947;50.810;4.394;2023-10-19T14:05:49;19.20;99.90
23540;DHT22;11947;50.810;4.394;2023-10-19T14:08:16;19.10;99.90
23540;DHT22;11947;50.810;4.394;2023-10-19T14:10:42;18.90;99.90
23540;DHT22;11947;50.810;4.394;2023-10-19T14:13:08;18.80;99.90
23540;DHT22;11947;50.810;4.394;2023-10-19T14:15:34;18.70;99.90
23540;DHT22;11947;50.810;4.394;2023-10-19T14:17:59;18.70;99.90
23540;DHT22;11947;50.810;4.394;2023-10-19T14:20:27;18.60;99.90
23540;DHT22;11947;50.810;4.394;2023-10-19T14:22:53;18.50;99.90
23540;DHT22;11947;50.810;4.394;2023-10-19T14:25:19;18.50;99.90
23540;DHT22;11947;50.810;4.394;2023-10-19T14:27:47;18.40;99.90
23540;DHT22;11947;50.810;4.394;2023-10-19T14:30:13;18.40;99.90
23540;DHT22;11947;50.810;4.394;2023-10-19T14:32:43;18.40;99.90
23540;DHT22;11947;50.810;4.394;2023-10-19T14:35:09;18.40;99.90
23540;DHT22;11947;50.810;4.394;2023-10-19T14:37:39;18.50;99.90
23540;DHT22;11947;50.810;4.394;2023-10-19T14:40:09;18.50;99.90
23540;DHT22;11947;50.810;4.394;2023-10-19T14:42:35;18.60;99.90
23540;DHT22;11947;50.810;4.394;2023-10-19T14:45:04;18.60;99.90
23540;DHT22;11947;50.810;4.394;2023-10-19T14:47:29;18.50;99.90
23540;DHT22;11947;50.810;4.394;2023-10-19T14:49:55;18.40;99.90
23540;DHT22;11947;50.810;4.394;2023-10-19T14:52:20;18.50;99.90
23540;DHT22;11947;50.810;4.394;2023-10-19T14:54:48;18.50;99.90
23540;DHT22;11947;50.810;4.394;2023-10-19T14:57:15;18.60;99.90
23540;DHT22;11947;50.810;4.394;2023-10-19T14:59:40;18.60;99.90
23540;DHT22;11947;50.810;4.394;2023-10-19T15:02:06;18.70;99.90
23540;DHT22;11947;50.810;4.394;2023-10-19T15:04:38;18.70;99.90
23540;DHT22;11947;50.810;4.394;2023-10-19T15:07:04;18.70;99.90
23540;DHT22;11947;50.810;4.394;2023-10-19T15:09:30;18.90;99.90
23540;DHT22;11947;50.810;4.394;2023-10-19T15:11:55;18.70;99.90
23540;DHT22;11947;50.810;4.394;2023-10-19T15:14:21;18.60;99.90
23540;DHT22;11947;50.810;4.394;2023-10-19T15:16:46;18.50;99.90
23540;DHT22;11947;50.810;4.394;2023-10-19T15:19:12;18.50;99.90
23540;DHT22;11947;50.810;4.394;2023-10-19T15:21:40;18.60;99.90
23540;DHT22;11947;50.810;4.394;2023-10-19T15:24:07;18.50;99.90
23540;DHT22;11947;50.810;4.394;2023-10-19T15:26:33;18.50;99.90
23540;DHT22;11947;50.810;4.394;2023-10-19T15:28:58;18.60;99.90
23540;DHT22;11947;50.810;4.394;2023-10-19T15:31:24;18.60;99.90
23540;DHT22;11947;50.810;4.394;2023-10-19T15:33:50;18.40;99.90
23540;DHT22;11947;50.810;4.394;2023-10-19T15:36:16;18.50;99.90
23540;DHT22;11947;50.810;4.394;2023-10-19T15:38:41;18.60;99.90
23540;DHT22;11947;50.810;4.394;2023-10-19T15:41:07;18.60;99.90
23540;DHT22;11947;50.810;4.394;2023-10-19T15:43:33;18.50;99.90